Columbia Falls, Montana
Current Conditions -  °F | °C
As of 5:55 AM on Thursday 27 Nov 2014 (Local Time) from KGPI Reporting Station
Light Rain Light Rain  
Wind Chill: 28°   Ceiling: 4300
Heat Index: 34°   Visibility: 7mi
Dew Point: 33°   Wind: 7mph
Humidity: 96%   Direction: 260°W
Pressure: 29.87"   Gusts: NA
Location:  48.37°N, 114.18°W
Report Text: KGPI 271255Z AUTO 26006KT 7SM -RA BKN043 OVC055 01/01 A2987 RMK AO2 RAB1156 SLP140 P0000 T00110006
Loading
Personal Weather Stations






























Interactive Weather Map New forecast layout! Learn more

10-Day Weather Forecast

Advertisements
Track Severe Weather on mobile